createdAt,value
2017-12-06T00:00:41.338Z,77.51
2017-12-06T00:03:09.697Z,78.21
2017-12-06T00:05:38.048Z,78.11
2017-12-06T00:08:06.402Z,76.68
2017-12-06T00:10:34.767Z,77.96
2017-12-06T00:13:08.691Z,76.75
2017-12-06T00:15:42.863Z,77.11
2017-12-06T00:18:11.220Z,75.40
2017-12-06T00:20:39.572Z,77.02
2017-12-06T00:23:07.961Z,76.44
2017-12-06T00:25:36.311Z,75.66
2017-12-06T00:28:04.666Z,75.51
2017-12-06T00:30:33.022Z,75.64
2017-12-06T00:33:01.383Z,78.30
2017-12-06T00:35:29.770Z,76.38
2017-12-06T00:37:58.125Z,77.29
2017-12-06T00:40:26.484Z,76.02
2017-12-06T00:42:54.845Z,74.74
2017-12-06T00:45:23.205Z,77.51
2017-12-06T00:47:51.595Z,76.55
2017-12-06T00:50:19.961Z,75.14
2017-12-06T00:52:48.350Z,74.48
2017-12-06T00:55:16.692Z,76.11
2017-12-06T00:57:45.059Z,75.94
2017-12-06T01:00:13.540Z,75.38
2017-12-06T01:02:41.896Z,74.15
2017-12-06T01:05:10.256Z,73.35
2017-12-06T01:07:38.618Z,75.69
2017-12-06T01:10:06.974Z,77.17
2017-12-06T01:12:35.369Z,76.14
2017-12-06T01:15:03.727Z,75.36
2017-12-06T01:17:32.115Z,74.60
2017-12-06T01:20:00.479Z,74.52
2017-12-06T01:22:28.837Z,76.39
2017-12-06T01:24:57.220Z,77.96
2017-12-06T01:27:25.759Z,75.87
2017-12-06T01:29:54.109Z,76.74
2017-12-06T01:32:22.482Z,75.47
2017-12-06T01:34:50.840Z,77.04
2017-12-06T01:37:19.326Z,77.08
2017-12-06T01:39:47.682Z,77.33
2017-12-06T01:42:16.043Z,75.37
2017-12-06T01:44:44.404Z,77.97
2017-12-06T01:47:12.760Z,76.53
2017-12-06T01:49:41.155Z,77.77
2017-12-06T01:52:09.511Z,75.00
2017-12-06T01:54:37.875Z,74.87
2017-12-06T01:57:06.235Z,73.09
2017-12-06T01:59:34.612Z,71.05
2017-12-06T02:02:03.020Z,72.76
2017-12-06T02:04:31.395Z,75.47
2017-12-06T02:06:59.746Z,76.16
2017-12-06T02:09:28.104Z,74.99
2017-12-06T02:11:56.465Z,75.02
2017-12-06T02:14:24.859Z,73.76
2017-12-06T02:16:53.235Z,73.12
2017-12-06T02:19:21.587Z,76.06
2017-12-06T02:21:49.959Z,76.91
2017-12-06T02:24:18.318Z,77.54
2017-12-06T02:26:46.670Z,77.89
2017-12-06T02:29:15.075Z,77.71
2017-12-06T02:31:43.427Z,77.19
2017-12-06T02:34:11.791Z,77.48
2017-12-06T02:36:40.149Z,77.09
2017-12-06T02:39:08.515Z,75.58
2017-12-06T02:41:48.651Z,75.07
2017-12-06T02:44:28.767Z,76.38
2017-12-06T02:46:57.127Z,76.80
2017-12-06T02:49:25.494Z,78.41
2017-12-06T02:51:53.872Z,77.14
2017-12-06T02:54:22.233Z,76.03
2017-12-06T02:56:50.611Z,77.27
2017-12-06T02:59:18.971Z,75.43
2017-12-06T03:01:47.329Z,78.49
2017-12-06T03:04:15.699Z,77.35
2017-12-06T03:06:44.083Z,78.38
2017-12-06T03:09:12.473Z,76.66
2017-12-06T03:11:40.829Z,76.36
2017-12-06T03:14:09.212Z,76.90
2017-12-06T03:16:37.564Z,76.59
2017-12-06T03:19:05.923Z,76.25
2017-12-06T03:21:34.319Z,79.05
2017-12-06T03:24:02.794Z,78.23
2017-12-06T03:26:31.148Z,79.29
2017-12-06T03:28:59.499Z,78.19
2017-12-06T03:31:27.858Z,78.61
2017-12-06T03:33:56.207Z,78.95
2017-12-06T03:36:24.591Z,78.67
2017-12-06T03:38:52.947Z,78.13
2017-12-06T03:41:21.298Z,79.06
2017-12-06T03:43:49.669Z,79.32
2017-12-06T03:46:18.024Z,79.15
2017-12-06T03:48:46.415Z,79.39
2017-12-06T03:51:14.772Z,78.10
2017-12-06T03:53:43.127Z,78.69
2017-12-06T03:56:11.479Z,78.07
2017-12-06T03:58:39.844Z,79.50
2017-12-06T04:01:08.223Z,77.33
2017-12-06T04:03:36.591Z,80.67
2017-12-06T04:06:04.936Z,78.92
2017-12-06T04:08:33.313Z,78.61
2017-12-06T04:11:01.688Z,78.04
2017-12-06T04:13:30.064Z,80.27
2017-12-06T04:15:58.417Z,79.58
2017-12-06T04:18:26.767Z,80.06
2017-12-06T04:20:55.139Z,79.74
2017-12-06T04:23:23.498Z,78.40
2017-12-06T04:25:51.883Z,78.75
2017-12-06T04:28:20.275Z,77.65
2017-12-06T04:30:48.621Z,75.99
2017-12-06T04:33:16.978Z,77.50
2017-12-06T04:35:45.331Z,79.80
2017-12-06T04:38:13.824Z,78.86
2017-12-06T04:40:42.183Z,77.57
2017-12-06T04:43:10.543Z,79.24
2017-12-06T04:45:39.024Z,78.69
2017-12-06T04:48:07.388Z,79.75
2017-12-06T04:50:35.738Z,76.74
2017-12-06T04:53:04.096Z,77.22
2017-12-06T04:55:32.499Z,78.73
2017-12-06T04:58:00.856Z,78.90
2017-12-06T05:00:29.213Z,77.59
2017-12-06T05:02:57.572Z,77.33
2017-12-06T05:05:25.927Z,76.51
2017-12-06T05:07:54.316Z,77.98
2017-12-06T05:10:22.680Z,76.31
2017-12-06T05:12:51.032Z,79.46
2017-12-06T05:15:19.396Z,76.46
2017-12-06T05:17:47.751Z,79.87
2017-12-06T05:20:16.163Z,79.77
2017-12-06T05:22:44.510Z,81.28
2017-12-06T05:25:12.877Z,80.34
2017-12-06T05:27:41.239Z,79.51
2017-12-06T05:30:09.603Z,79.58
2017-12-06T05:32:37.987Z,81.20
2017-12-06T05:35:06.351Z,78.75
2017-12-06T05:37:34.727Z,82.29
2017-12-06T05:40:03.148Z,80.56
2017-12-06T05:42:31.464Z,82.46
2017-12-06T05:44:59.888Z,80.44
2017-12-06T05:47:28.243Z,80.58
2017-12-06T05:49:56.642Z,80.78
2017-12-06T05:52:24.999Z,80.13
2017-12-06T05:54:53.356Z,80.11
2017-12-06T05:57:21.714Z,81.63
2017-12-06T05:59:50.098Z,80.35
2017-12-06T06:02:18.451Z,79.05
2017-12-06T06:04:46.839Z,78.19
2017-12-06T06:07:15.235Z,80.35
2017-12-06T06:09:43.588Z,79.61
2017-12-06T06:12:11.955Z,79.37
2017-12-06T06:14:40.304Z,79.87
2017-12-06T06:17:08.669Z,79.15
2017-12-06T06:19:37.052Z,79.93
2017-12-06T06:22:05.413Z,79.77
2017-12-06T06:24:33.907Z,79.69
2017-12-06T06:27:02.303Z,78.23
2017-12-06T06:29:30.765Z,81.15
2017-12-06T06:31:59.207Z,79.80
2017-12-06T06:34:27.627Z,79.14
2017-12-06T06:36:56.032Z,79.78
2017-12-06T06:39:25.428Z,80.20
2017-12-06T06:41:53.878Z,79.28
2017-12-06T06:44:22.269Z,81.81
2017-12-06T06:46:50.631Z,81.70
2017-12-06T06:49:19.036Z,80.42
2017-12-06T06:51:47.404Z,80.85
2017-12-06T06:54:15.792Z,80.07
2017-12-06T06:56:44.149Z,82.06
2017-12-06T06:59:12.512Z,81.12
2017-12-06T07:01:40.908Z,79.59
2017-12-06T07:04:09.277Z,80.08
2017-12-06T07:06:37.653Z,80.66
2017-12-06T07:09:06.061Z,81.05
2017-12-06T07:11:34.406Z,84.01
2017-12-06T07:14:02.762Z,82.53
2017-12-06T07:16:31.119Z,79.85
2017-12-06T07:18:59.473Z,81.47
2017-12-06T07:21:27.823Z,80.51
2017-12-06T07:23:56.179Z,79.89
2017-12-06T07:26:24.585Z,78.47
2017-12-06T07:28:52.950Z,79.83
2017-12-06T07:31:21.316Z,79.54
2017-12-06T07:33:49.679Z,79.55
2017-12-06T07:36:18.045Z,78.73
2017-12-06T07:38:46.534Z,80.13
2017-12-06T07:41:14.891Z,80.79
2017-12-06T07:43:43.272Z,79.19
2017-12-06T07:46:11.623Z,79.74
2017-12-06T07:48:39.990Z,80.24
2017-12-06T07:51:08.396Z,80.94
2017-12-06T07:53:36.777Z,79.01
2017-12-06T07:56:05.136Z,78.98
2017-12-06T07:58:39.023Z,79.64
2017-12-06T08:01:07.385Z,78.05
2017-12-06T08:03:35.777Z,79.02
2017-12-06T08:06:04.141Z,78.97
2017-12-06T08:08:32.634Z,80.79
2017-12-06T08:11:00.981Z,76.58
2017-12-06T08:13:29.337Z,78.53
2017-12-06T08:15:57.684Z,77.85
2017-12-06T08:18:26.043Z,80.05
2017-12-06T08:20:54.420Z,77.75
2017-12-06T08:23:22.777Z,79.03
2017-12-06T08:25:51.152Z,79.85
2017-12-06T08:28:19.507Z,80.23
2017-12-06T08:30:47.918Z,80.91
2017-12-06T08:33:16.280Z,76.78
2017-12-06T08:35:44.643Z,76.31
2017-12-06T08:38:13.044Z,76.51
2017-12-06T08:40:41.400Z,75.93
2017-12-06T08:43:09.803Z,77.97
2017-12-06T08:45:38.151Z,75.95
2017-12-06T08:48:06.512Z,77.26
2017-12-06T08:50:34.864Z,77.58
2017-12-06T08:53:03.231Z,78.01
2017-12-06T08:55:31.643Z,79.79
2017-12-06T08:57:59.993Z,78.62
2017-12-06T09:00:28.338Z,78.07
2017-12-06T09:02:56.685Z,77.04
2017-12-06T09:05:25.032Z,78.29
2017-12-06T09:07:53.429Z,79.38
2017-12-06T09:10:21.775Z,77.58
2017-12-06T09:12:50.252Z,76.85
2017-12-06T09:15:18.614Z,77.76
2017-12-06T09:17:46.951Z,75.10
2017-12-06T09:20:15.306Z,76.05
2017-12-06T09:22:43.697Z,77.75
2017-12-06T09:25:12.051Z,78.81
2017-12-06T09:27:40.411Z,77.44
2017-12-06T09:30:08.819Z,75.10
2017-12-06T09:32:37.179Z,75.31
2017-12-06T09:35:05.554Z,77.11
2017-12-06T09:37:33.903Z,78.43
2017-12-06T09:40:02.252Z,77.43
2017-12-06T09:42:30.619Z,75.97
2017-12-06T09:44:58.968Z,77.21
2017-12-06T09:47:27.349Z,76.56
2017-12-06T09:49:55.739Z,77.64
2017-12-06T09:52:24.168Z,77.77
2017-12-06T09:55:05.363Z,76.20
2017-12-06T09:57:33.707Z,76.90
2017-12-06T10:00:02.107Z,75.47
2017-12-06T10:02:30.461Z,76.36
2017-12-06T10:04:58.828Z,74.28
2017-12-06T10:07:27.241Z,74.08
2017-12-06T10:09:55.630Z,73.10
2017-12-06T10:12:24.008Z,76.60
2017-12-06T10:14:52.372Z,76.18
2017-12-06T10:17:20.751Z,71.87
2017-12-06T10:19:49.110Z,73.84
2017-12-06T10:22:17.483Z,75.44
2017-12-06T10:24:45.869Z,74.25
2017-12-06T10:27:14.243Z,74.92
2017-12-06T10:29:42.615Z,75.94
2017-12-06T10:32:11.172Z,72.74
2017-12-06T10:34:39.662Z,73.31
2017-12-06T10:37:08.092Z,74.99
2017-12-06T10:39:36.519Z,74.78
2017-12-06T10:42:04.905Z,74.14
2017-12-06T10:44:33.307Z,74.72
2017-12-06T10:47:01.658Z,75.29
2017-12-06T10:49:30.042Z,74.39
2017-12-06T10:51:58.526Z,75.48
2017-12-06T10:54:26.917Z,76.56
2017-12-06T10:56:55.264Z,75.90
2017-12-06T10:59:23.620Z,77.41
2017-12-06T11:01:52.008Z,74.15
2017-12-06T11:04:20.358Z,76.31
2017-12-06T11:06:48.695Z,76.60
2017-12-06T11:09:17.079Z,73.21
2017-12-06T11:11:45.428Z,74.47
2017-12-06T11:14:13.808Z,74.46
2017-12-06T11:16:42.168Z,75.02
2017-12-06T11:19:10.509Z,74.42
2017-12-06T11:21:38.857Z,74.64
2017-12-06T11:24:07.215Z,75.45
2017-12-06T11:26:35.575Z,73.55
2017-12-06T11:29:03.963Z,76.85
2017-12-06T11:31:32.319Z,73.75
2017-12-06T11:34:00.788Z,74.95
2017-12-06T11:36:29.142Z,75.56
2017-12-06T11:38:57.487Z,72.86
2017-12-06T11:41:26.000Z,71.75
2017-12-06T11:43:54.350Z,72.26
2017-12-06T11:46:22.703Z,73.41
2017-12-06T11:48:51.048Z,73.58
2017-12-06T11:51:19.401Z,76.46
2017-12-06T11:53:47.766Z,74.38
2017-12-06T11:56:16.117Z,74.45
2017-12-06T11:58:44.492Z,74.41
2017-12-06T12:01:12.843Z,75.56
2017-12-06T12:03:41.199Z,74.27
2017-12-06T12:06:09.552Z,71.73
2017-12-06T12:08:37.896Z,75.28
2017-12-06T12:11:06.284Z,76.68
2017-12-06T12:13:34.651Z,75.48
2017-12-06T12:16:03.001Z,75.33
2017-12-06T12:18:31.358Z,74.72
2017-12-06T12:20:59.707Z,73.65
2017-12-06T12:23:28.092Z,74.08
2017-12-06T12:25:56.448Z,71.56
2017-12-06T12:28:24.802Z,71.46
2017-12-06T12:33:50.448Z,73.02
2017-12-06T12:36:18.810Z,71.75
2017-12-06T12:38:47.205Z,74.76
2017-12-06T12:41:15.549Z,76.77
2017-12-06T12:43:43.903Z,71.97
2017-12-06T12:46:12.264Z,72.75
2017-12-06T12:48:41.579Z,71.28
2017-12-06T12:51:09.969Z,73.73
2017-12-06T12:53:38.329Z,75.49
2017-12-06T12:56:06.684Z,72.71
2017-12-06T12:58:35.030Z,74.29
2017-12-06T13:01:03.378Z,74.33
2017-12-06T13:03:31.747Z,74.71
2017-12-06T13:06:00.164Z,75.81
2017-12-06T13:08:28.484Z,73.88
2017-12-06T13:10:56.858Z,72.63
2017-12-06T13:13:25.202Z,74.13
2017-12-06T13:15:53.681Z,74.66
2017-12-06T13:18:22.040Z,73.74
2017-12-06T13:20:50.389Z,73.18
2017-12-06T13:23:18.736Z,73.70
2017-12-06T13:25:47.108Z,71.88
2017-12-06T13:28:15.601Z,73.14
2017-12-06T13:30:43.968Z,73.06
2017-12-06T13:33:12.320Z,72.34
2017-12-06T13:35:40.668Z,72.17
2017-12-06T13:38:09.030Z,71.01
2017-12-06T13:40:37.434Z,72.01
2017-12-06T13:43:05.786Z,73.38
2017-12-06T13:45:34.132Z,74.05
2017-12-06T13:48:02.472Z,73.85
2017-12-06T13:50:30.826Z,72.98
2017-12-06T13:52:59.210Z,70.45
2017-12-06T13:55:27.565Z,70.92
2017-12-06T13:57:55.918Z,72.87
2017-12-06T14:00:24.266Z,70.50
2017-12-06T14:02:52.624Z,70.57
2017-12-06T14:05:20.988Z,70.70
2017-12-06T14:07:49.329Z,73.05
2017-12-06T14:10:17.670Z,71.24
2017-12-06T14:12:46.012Z,72.54
2017-12-06T14:15:14.345Z,70.25
2017-12-06T14:17:42.718Z,68.79
2017-12-06T14:20:11.061Z,69.47
2017-12-06T14:22:39.435Z,70.05
2017-12-06T14:25:12.807Z,72.11
2017-12-06T14:30:40.489Z,70.25
2017-12-06T14:33:10.440Z,70.02
2017-12-06T14:35:38.805Z,68.76
2017-12-06T14:38:07.140Z,69.94
2017-12-06T14:40:35.488Z,68.57
2017-12-06T14:43:03.821Z,69.41
2017-12-06T14:45:32.186Z,67.92
2017-12-06T14:48:00.522Z,68.21
2017-12-06T14:50:28.880Z,68.59
2017-12-06T14:52:57.224Z,71.13
2017-12-06T14:55:25.561Z,71.36
2017-12-06T14:57:53.897Z,72.10
2017-12-06T15:00:22.235Z,70.63
2017-12-06T15:02:50.604Z,70.34
2017-12-06T15:05:18.978Z,70.69
2017-12-06T15:07:47.316Z,66.75
2017-12-06T15:10:15.660Z,69.11
2017-12-06T15:12:43.995Z,72.28
2017-12-06T15:15:12.375Z,69.15
2017-12-06T15:17:40.714Z,70.20
2017-12-06T15:20:09.066Z,70.12
2017-12-06T15:22:37.404Z,71.01
2017-12-06T15:25:05.739Z,72.59
2017-12-06T15:27:34.110Z,71.61
2017-12-06T15:30:02.455Z,71.59
2017-12-06T15:32:30.816Z,69.73
2017-12-06T15:34:59.166Z,68.18
2017-12-06T15:37:27.544Z,67.62
2017-12-06T15:39:55.891Z,68.13
2017-12-06T15:42:24.236Z,69.31
2017-12-06T15:44:52.576Z,70.06
2017-12-06T15:47:20.920Z,69.61
2017-12-06T15:49:49.368Z,68.65
2017-12-06T15:52:18.707Z,67.02
2017-12-06T15:54:47.092Z,70.01
2017-12-06T15:57:15.501Z,68.95
2017-12-06T15:59:43.806Z,69.88
2017-12-06T16:02:12.141Z,70.74
2017-12-06T16:04:40.497Z,69.64
2017-12-06T16:07:08.899Z,69.89
2017-12-06T16:09:37.260Z,68.52
2017-12-06T16:12:05.611Z,67.53
2017-12-06T16:14:33.948Z,69.21
2017-12-06T16:17:02.292Z,69.27
2017-12-06T16:19:30.716Z,70.12
2017-12-06T16:21:59.044Z,67.14
2017-12-06T16:24:27.452Z,67.20
2017-12-06T16:26:55.886Z,69.18
2017-12-06T16:29:24.277Z,68.48
2017-12-06T16:31:52.735Z,69.61
2017-12-06T16:34:21.082Z,68.21
2017-12-06T16:37:01.152Z,66.47
2017-12-06T16:39:29.504Z,69.12
2017-12-06T16:41:57.855Z,69.36
2017-12-06T16:44:35.295Z,71.15
2017-12-06T16:47:03.661Z,68.99
2017-12-06T17:22:05.977Z,66.96
2017-12-06T17:24:34.365Z,67.55
2017-12-06T17:27:02.763Z,68.97
2017-12-06T17:32:27.267Z,67.47
2017-12-06T17:34:55.609Z,67.77
2017-12-06T17:37:23.963Z,65.58
2017-12-06T17:39:52.300Z,65.59
2017-12-06T17:42:20.629Z,65.72
2017-12-06T17:44:48.956Z,68.12
2017-12-06T17:47:17.290Z,69.39
2017-12-06T17:49:45.663Z,68.18
2017-12-06T17:52:14.014Z,68.15
2017-12-06T17:54:42.342Z,69.62
2017-12-06T17:57:10.692Z,67.58
2017-12-06T17:59:39.026Z,68.43
2017-12-06T18:02:15.385Z,69.85
2017-12-06T18:04:43.725Z,68.80
2017-12-06T18:07:12.059Z,66.24
2017-12-06T18:09:40.408Z,68.05
2017-12-06T18:12:08.766Z,68.16
2017-12-06T18:14:37.124Z,70.48
2017-12-06T18:17:05.451Z,67.29
2017-12-06T18:19:33.805Z,69.49
2017-12-06T18:22:02.134Z,71.58
2017-12-06T18:24:30.466Z,69.80
2017-12-06T18:26:58.807Z,71.04
2017-12-06T18:29:27.215Z,70.65
2017-12-06T18:31:55.569Z,68.81
2017-12-06T18:34:23.938Z,69.61
2017-12-06T18:36:52.305Z,68.68
2017-12-06T18:39:20.654Z,70.78
2017-12-06T18:41:49.031Z,69.22
2017-12-06T18:44:17.367Z,71.18
2017-12-06T18:46:45.754Z,68.27
2017-12-06T18:49:14.137Z,69.52
2017-12-06T18:51:42.611Z,67.99
2017-12-06T18:54:10.993Z,69.52
2017-12-06T18:56:39.355Z,68.41
2017-12-06T18:59:07.749Z,69.21
2017-12-06T19:01:37.167Z,68.07
2017-12-06T19:04:05.555Z,67.15
2017-12-06T19:06:33.899Z,70.33
2017-12-06T19:09:02.291Z,71.37
2017-12-06T19:11:30.634Z,69.63
2017-12-06T19:13:59.015Z,70.94
2017-12-06T19:16:27.486Z,70.85
2017-12-06T19:18:55.825Z,68.52
2017-12-06T19:21:24.166Z,70.76
2017-12-06T19:23:52.550Z,71.74
2017-12-06T19:26:20.914Z,69.18
2017-12-06T19:28:49.280Z,71.44
2017-12-06T19:31:17.764Z,69.18
2017-12-06T19:36:20.712Z,69.59
2017-12-06T19:38:49.061Z,72.16
2017-12-06T19:41:17.394Z,72.71
2017-12-06T19:43:46.803Z,69.11
2017-12-06T19:46:15.147Z,72.62
2017-12-06T19:48:43.639Z,70.10
2017-12-06T19:51:12.009Z,71.30
2017-12-06T19:53:40.385Z,69.93
2017-12-06T19:56:08.732Z,70.80
2017-12-06T19:58:37.061Z,71.26
2017-12-06T20:01:05.423Z,68.94
2017-12-06T20:03:33.758Z,70.11
2017-12-06T20:06:02.118Z,69.91
2017-12-06T20:08:30.449Z,72.04
2017-12-06T20:10:58.799Z,72.27
2017-12-06T20:13:27.158Z,72.15
2017-12-06T20:15:55.493Z,72.28
2017-12-06T20:18:23.846Z,72.33
2017-12-06T20:20:52.196Z,73.22
2017-12-06T20:23:20.544Z,73.93
2017-12-06T20:25:48.901Z,72.49
2017-12-06T20:28:17.301Z,71.74
2017-12-06T20:30:45.594Z,71.84
2017-12-06T20:33:13.947Z,73.14
2017-12-06T20:35:42.319Z,72.66
2017-12-06T20:38:10.703Z,72.55
2017-12-06T20:40:39.037Z,73.18
2017-12-06T20:43:07.375Z,74.23
2017-12-06T20:45:35.722Z,69.72
2017-12-06T20:48:04.060Z,72.78
2017-12-06T20:50:32.454Z,71.66
2017-12-06T20:53:00.803Z,72.76
2017-12-06T20:55:29.141Z,70.69
2017-12-06T20:57:57.504Z,71.87
2017-12-06T21:00:25.925Z,73.46
2017-12-06T21:02:54.346Z,73.16
2017-12-06T21:05:22.722Z,72.98
2017-12-06T21:07:51.075Z,72.34
2017-12-06T21:10:19.421Z,71.07
2017-12-06T21:12:47.773Z,71.88
2017-12-06T21:15:16.145Z,72.03
2017-12-06T21:17:44.490Z,73.91
2017-12-06T21:20:12.841Z,74.22
2017-12-06T21:22:41.199Z,73.43
2017-12-06T21:25:09.620Z,70.96
2017-12-06T21:27:37.989Z,71.18
2017-12-06T21:30:06.326Z,73.09
2017-12-06T21:32:34.681Z,72.82
2017-12-06T21:35:03.209Z,72.17
2017-12-06T21:37:32.558Z,71.35
2017-12-06T21:40:00.935Z,69.50
2017-12-06T21:42:29.298Z,71.47
2017-12-06T21:44:57.653Z,70.33
2017-12-06T21:47:26.005Z,71.77
2017-12-06T21:49:54.346Z,69.97
2017-12-06T21:52:22.710Z,69.64
2017-12-06T21:54:51.041Z,70.46
2017-12-06T21:57:19.394Z,70.72
2017-12-06T21:59:47.724Z,71.77
2017-12-06T22:02:16.071Z,70.50
2017-12-06T22:04:44.576Z,72.00
2017-12-06T22:07:12.906Z,70.88
2017-12-06T22:09:41.241Z,72.37
2017-12-06T22:12:09.578Z,71.33
2017-12-06T22:14:37.919Z,72.60
2017-12-06T22:17:06.899Z,72.85
2017-12-06T22:19:35.241Z,70.56
2017-12-06T22:22:03.572Z,70.35
2017-12-06T22:24:31.916Z,72.43
2017-12-06T22:27:00.242Z,72.47
2017-12-06T22:29:28.602Z,70.17
2017-12-06T22:31:56.938Z,69.81
2017-12-06T22:34:25.286Z,68.54
2017-12-06T22:36:53.626Z,69.64
2017-12-06T22:39:21.972Z,72.61
2017-12-06T22:41:50.347Z,72.75
2017-12-06T22:44:18.703Z,72.03
2017-12-06T22:46:47.042Z,73.11
2017-12-06T22:49:15.380Z,70.92
2017-12-06T22:51:43.714Z,72.47
2017-12-06T22:54:12.174Z,71.94
2017-12-06T22:56:40.514Z,71.28
2017-12-06T22:59:08.862Z,73.79
2017-12-06T23:01:37.198Z,72.25
2017-12-06T23:04:05.530Z,70.77
2017-12-06T23:06:33.894Z,70.42
2017-12-06T23:09:02.261Z,70.21
2017-12-06T23:11:30.623Z,72.82
2017-12-06T23:13:58.959Z,70.48
2017-12-06T23:16:27.286Z,69.97
2017-12-06T23:18:55.641Z,70.65
2017-12-06T23:21:23.998Z,70.57
2017-12-06T23:23:52.338Z,70.63
2017-12-06T23:26:20.688Z,70.89
2017-12-06T23:28:49.026Z,68.98
2017-12-06T23:31:17.388Z,69.25
2017-12-06T23:33:45.730Z,69.50
2017-12-06T23:36:14.057Z,67.92
2017-12-06T23:38:42.398Z,70.03
2017-12-06T23:41:10.761Z,70.91
2017-12-06T23:43:39.140Z,68.91
2017-12-06T23:46:08.407Z,67.62
2017-12-06T23:48:36.743Z,65.64
2017-12-06T23:51:05.100Z,67.30
2017-12-06T23:53:33.433Z,67.19
2017-12-06T23:56:01.802Z,68.17
2017-12-06T23:58:30.143Z,69.28
